< < Back
Terminal Aerodrome Forecast


Current Version              Previous Versions:   1  2  3  4  5  6  7  8  9  

Terminal Aerodrome Forecast

381
FTUS42 KFFC 290730 AAA
TAFAHN
TAF AMD
KAHN 290730Z 2908/3006 00000KT 5SM BR SCT002 SCT150
      TEMPO 2908/2912 2SM BR BKN002
     FM291400 32005KT P6SM SCT040 SCT250
     FM292300 VRB03KT P6SM SCT250=



Latest METAR

209
SAUS70 KWBC 290900
MTRAHN
METAR KAHN 290851Z AUTO 00000KT 10SM CLR 21/21 A2997 RMK AO2 SLP142
T02060206 55004


USA.gov is the U.S. government's official web portal to all federal, state and local government web resources and services.